Time;durP1;ratioP1;P1;durP2;ratioP2;P2;SDS_P1;SDS_P2;PMS_P1;PMS_P2;Temp;Humidity;BMP_temperature;BMP_pressure;BME280_temperature;BME280_humidity;BME280_pressure;Samples;Min_cycle;Max_cycle;Signal;HPM_P1;HPM_P2
2022/02/11 00:02:12;;;;;;;4.15;2.72;;;5.00;99.90;;;;;;2088317;28;20191;-72
2022/02/11 00:04:48;;;;;;;4.07;2.60;;;4.90;99.90;;;;;;2096706;28;20207;-72
2022/02/11 00:05:55;;;;;;;3.25;2.50;;;4.80;99.90;;;;;;2095697;28;20192;-72
2022/02/11 00:07:28;;;;;;;7.95;3.00;;;4.80;99.90;;;;;;2097307;28;20206;-70
2022/02/11 00:08:21;;;;;;;3.10;2.38;;;4.80;99.90;;;;;;2093714;28;20671;-71
2022/02/11 00:09:22;;;;;;;3.80;2.70;;;4.90;99.90;;;;;;2095716;28;20184;-71
2022/02/11 00:10:25;;;;;;;5.10;3.07;;;5.00;99.90;;;;;;2096854;28;20213;-71
2022/02/11 00:11:40;;;;;;;4.32;2.80;;;5.00;99.90;;;;;;2097122;28;20183;-71
2022/02/11 00:12:42;;;;;;;4.35;2.65;;;4.90;99.90;;;;;;2096356;28;20203;-71
2022/02/11 00:13:43;;;;;;;4.20;2.75;;;5.00;99.90;;;;;;2096525;28;20634;-71
2022/02/11 00:14:55;;;;;;;4.53;2.40;;;5.00;99.90;;;;;;2096673;28;20175;-71
2022/02/11 00:15:56;;;;;;;5.38;2.75;;;5.10;99.90;;;;;;2097063;28;20183;-71
2022/02/11 00:16:57;;;;;;;6.07;3.00;;;4.90;99.90;;;;;;2097181;28;20179;-70
2022/02/11 00:17:58;;;;;;;4.87;2.90;;;4.90;99.90;;;;;;2097709;28;20631;-71
2022/02/11 00:18:59;;;;;;;4.70;2.90;;;5.00;99.90;;;;;;2097583;28;20175;-72
2022/02/11 00:20:00;;;;;;;4.05;2.75;;;5.00;99.90;;;;;;2097543;28;20183;-71
2022/02/11 00:21:01;;;;;;;4.53;2.93;;;5.10;99.90;;;;;;2097635;28;20183;-71
2022/02/11 00:22:02;;;;;;;5.07;3.13;;;5.10;99.90;;;;;;2096918;28;20178;-71
2022/02/11 00:23:06;;;;;;;5.07;3.00;;;5.00;99.90;;;;;;2096789;28;20709;-71
2022/02/11 00:24:07;;;;;;;6.38;3.60;;;5.00;99.90;;;;;;2097555;28;20183;-71
2022/02/11 00:25:08;;;;;;;4.27;3.30;;;4.90;99.90;;;;;;2096690;28;20190;-70
2022/02/11 00:26:09;;;;;;;4.97;2.65;;;5.00;99.90;;;;;;2097037;28;20217;-71
2022/02/11 00:31:06;;;;;;;5.63;3.30;;;4.90;99.90;;;;;;2097590;28;20257;-70
2022/02/11 00:32:15;;;;;;;4.32;2.83;;;4.90;99.90;;;;;;2097532;28;20171;-71
2022/02/11 00:34:30;;;;;;;5.25;3.33;;;4.90;99.90;;;;;;2097680;28;20237;-70
2022/02/11 00:36:42;;;;;;;4.53;2.90;;;5.00;99.90;;;;;;2097031;28;20731;-70
2022/02/11 00:37:43;;;;;;;5.22;3.40;;;5.00;99.90;;;;;;2097019;28;20648;-71
2022/02/11 00:39:15;;;;;;;5.63;3.40;;;4.90;99.90;;;;;;2097530;28;20209;-69
2022/02/11 00:40:40;;;;;;;3.53;2.58;;;5.00;99.90;;;;;;2096845;28;20264;-70
2022/02/11 00:43:43;;;;;;;4.28;2.70;;;5.00;99.90;;;;;;2092436;28;20205;-69
2022/02/11 00:45:47;;;;;;;3.83;2.65;;;5.20;99.90;;;;;;2088614;28;20171;-69
2022/02/11 01:02:46;;;;;;;5.25;3.20;;;5.10;99.90;;;;;;2088434;28;20612;-69
2022/02/11 01:04:03;;;;;;;7.05;3.65;;;5.00;99.90;;;;;;2088803;28;20156;-69
2022/02/11 01:05:04;;;;;;;4.70;2.85;;;4.90;99.90;;;;;;2088874;28;20175;-70
2022/02/11 01:06:05;;;;;;;6.15;3.10;;;4.90;99.90;;;;;;2089241;28;20184;-69
2022/02/11 01:07:07;;;;;;;4.23;3.00;;;4.90;99.90;;;;;;2089121;28;20713;-69
2022/02/11 01:08:08;;;;;;;3.78;2.55;;;4.80;99.90;;;;;;2088262;28;20301;-70
2022/02/11 01:09:14;;;;;;;3.50;2.90;;;4.70;99.90;;;;;;2088266;28;20192;-69
2022/02/11 01:10:16;;;;;;;2.83;2.13;;;4.70;99.90;;;;;;2088466;28;20184;-69
2022/02/11 01:11:27;;;;;;;4.05;2.60;;;4.60;99.90;;;;;;2088563;28;20245;-69
2022/02/11 01:12:29;;;;;;;3.63;2.50;;;4.60;99.90;;;;;;2088492;28;20181;-69
2022/02/11 01:13:30;;;;;;;3.35;2.47;;;4.50;99.90;;;;;;2088492;28;20215;-70
2022/02/11 01:14:38;;;;;;;3.43;2.83;;;4.40;99.90;;;;;;2088253;28;20183;-69
2022/02/11 01:15:44;;;;;;;4.90;2.90;;;4.50;99.90;;;;;;2089045;28;20175;-69
2022/02/11 01:16:55;;;;;;;4.57;2.70;;;4.50;99.90;;;;;;2089127;28;20168;-69
2022/02/11 01:17:59;;;;;;;3.70;2.70;;;4.50;99.90;;;;;;2088374;28;20171;-69
2022/02/11 01:19:28;;;;;;;4.20;2.78;;;4.50;99.90;;;;;;2096855;28;20191;-70
2022/02/11 01:20:58;;;;;;;4.10;2.60;;;4.40;99.90;;;;;;2096478;28;20213;-69
2022/02/11 01:22:09;;;;;;;3.83;2.55;;;4.40;99.90;;;;;;2089068;28;20622;-70
2022/02/11 01:23:23;;;;;;;4.28;2.72;;;4.40;99.90;;;;;;2088719;28;20286;-70
2022/02/11 01:26:49;;;;;;;4.55;3.17;;;4.60;99.90;;;;;;2088485;28;20179;-69
2022/02/11 01:31:54;;;;;;;2.75;2.25;;;4.30;99.90;;;;;;2089029;28;20175;-69
2022/02/11 01:34:37;;;;;;;2.67;2.17;;;4.20;99.90;;;;;;2055221;28;20236;-69
2022/02/11 01:41:09;;;;;;;3.70;2.08;;;3.80;99.90;;;;;;2082824;28;20260;-69
2022/02/11 01:43:48;;;;;;;5.95;2.35;;;3.60;99.90;;;;;;2088771;28;20209;-69
2022/02/11 01:51:45;;;;;;;2.90;1.80;;;3.50;99.90;;;;;;2088693;28;20543;-69
2022/02/11 01:54:08;;;;;;;3.50;2.40;;;3.60;99.90;;;;;;2089117;28;20180;-69
2022/02/11 01:56:48;;;;;;;2.45;1.77;;;3.70;99.90;;;;;;2088535;28;20190;-69
2022/02/11 02:00:41;;;;;;;2.95;2.00;;;3.50;99.90;;;;;;2088972;28;20186;-70
2022/02/11 02:06:12;;;;;;;2.90;2.13;;;3.60;99.90;;;;;;2063434;28;20197;-69
2022/02/11 02:11:15;;;;;;;2.93;2.00;;;3.60;99.90;;;;;;2063342;28;20195;-69
2022/02/11 02:24:18;;;;;;;3.17;2.47;;;3.30;99.90;;;;;;2088902;28;20210;-69
2022/02/11 02:24:59;;;;;;;4.00;2.33;;;3.30;99.90;;;;;;2082997;28;20190;-69
2022/02/11 02:34:22;;;;;;;4.20;2.47;;;3.30;99.90;;;;;;2090527;28;20253;-70
2022/02/11 02:38:31;;;;;;;3.67;2.33;;;3.40;99.90;;;;;;2090261;28;20597;-69
2022/02/11 02:43:22;;;;;;;4.70;2.42;;;3.30;99.90;;;;;;2089994;28;20193;-69
2022/02/11 02:50:09;;;;;;;3.30;2.05;;;3.40;99.90;;;;;;2090339;28;20210;-69
2022/02/11 02:56:41;;;;;;;2.85;1.98;;;2.90;99.90;;;;;;2089679;28;20239;-69
2022/02/11 02:57:51;;;;;;;2.13;1.50;;;2.90;99.90;;;;;;2089979;28;20639;-69
2022/02/11 02:59:05;;;;;;;1.95;1.40;;;2.80;99.90;;;;;;2089185;28;20165;-69
2022/02/11 03:34:45;;;;;;;1.15;0.70;;;2.30;99.90;;;;;;2088999;28;20173;-70
2022/02/11 03:57:01;;;;;;;0.85;0.70;;;2.20;99.90;;;;;;2081043;28;20175;-70
2022/02/11 04:20:31;;;;;;;0.80;0.70;;;2.10;99.90;;;;;;2080580;28;20547;-71
2022/02/11 04:25:20;;;;;;;0.50;0.50;;;1.70;99.90;;;;;;2080694;28;20173;-70
2022/02/11 04:52:40;;;;;;;0.40;0.40;;;1.60;99.90;;;;;;2080996;28;20179;-70
2022/02/11 04:55:48;;;;;;;0.40;0.40;;;1.30;99.90;;;;;;2087827;28;20168;-70
2022/02/11 04:56:49;;;;;;;0.70;0.70;;;1.40;99.90;;;;;;2088339;28;20169;-70
2022/02/11 05:00:29;;;;;;;0.52;0.40;;;1.40;99.90;;;;;;2088635;28;20180;-71
2022/02/11 05:01:30;;;;;;;1.80;0.50;;;1.30;99.90;;;;;;2088886;28;20292;-71
2022/02/11 05:02:35;;;;;;;0.50;0.50;;;1.30;99.90;;;;;;2088885;28;20180;-70
2022/02/11 05:03:36;;;;;;;1.75;0.63;;;1.20;99.90;;;;;;2088112;28;20678;-70
2022/02/11 05:04:36;;;;;;;0.85;0.52;;;1.10;99.90;;;;;;2080078;28;20236;-71
2022/02/11 05:05:50;;;;;;;0.70;0.70;;;1.10;99.90;;;;;;2080192;28;20180;-71
2022/02/11 05:06:51;;;;;;;1.58;0.80;;;1.10;99.90;;;;;;2088568;28;20527;-71
2022/02/11 05:07:52;;;;;;;0.60;0.60;;;1.00;99.90;;;;;;2088852;28;20660;-70
2022/02/11 05:08:54;;;;;;;1.00;0.90;;;1.10;99.90;;;;;;2088952;28;20164;-71
2022/02/11 05:09:54;;;;;;;1.17;0.88;;;1.10;99.90;;;;;;2088867;28;20291;-71
2022/02/11 05:10:57;;;;;;;0.97;0.90;;;1.00;99.90;;;;;;2088931;28;20176;-70
2022/02/11 05:11:58;;;;;;;1.08;0.90;;;1.10;99.90;;;;;;2088299;28;20200;-71
2022/02/11 05:12:59;;;;;;;0.80;0.80;;;1.10;99.90;;;;;;2080072;28;20258;-71
2022/02/11 05:13:59;;;;;;;0.80;0.80;;;1.10;99.90;;;;;;2088337;28;20563;-71
2022/02/11 05:15:00;;;;;;;0.93;0.80;;;1.10;99.90;;;;;;2088129;28;20210;-71
2022/02/11 05:16:01;;;;;;;1.17;0.97;;;1.10;99.90;;;;;;2088231;28;20183;-72
2022/02/11 05:17:02;;;;;;;1.20;1.00;;;1.00;99.90;;;;;;2088281;28;20827;-71
2022/02/11 05:18:03;;;;;;;1.13;1.03;;;1.00;99.90;;;;;;2088345;28;20665;-70
2022/02/11 05:19:04;;;;;;;1.02;0.90;;;1.10;99.90;;;;;;2088237;28;20180;-71
2022/02/11 05:20:06;;;;;;;1.47;1.17;;;1.10;99.90;;;;;;2088274;28;20535;-71
2022/02/11 05:21:07;;;;;;;2.17;1.20;;;1.20;99.90;;;;;;2088978;28;20752;-71
2022/02/11 05:22:08;;;;;;;1.10;1.00;;;1.20;99.90;;;;;;2088201;28;20282;-71
2022/02/11 05:23:12;;;;;;;1.53;1.30;;;1.20;99.90;;;;;;2088273;28;20271;-71
2022/02/11 05:24:13;;;;;;;1.73;1.05;;;1.10;99.90;;;;;;2088245;28;20226;-71
2022/02/11 05:25:14;;;;;;;1.17;1.07;;;1.00;99.90;;;;;;2088112;28;20225;-71
2022/02/11 05:26:14;;;;;;;1.37;1.20;;;1.00;99.90;;;;;;2088224;28;20184;-71
2022/02/11 05:27:15;;;;;;;1.30;1.20;;;1.00;99.90;;;;;;2088204;28;20182;-71
2022/02/11 05:28:16;;;;;;;1.63;1.23;;;0.90;99.90;;;;;;2088831;28;20667;-71
2022/02/11 05:29:17;;;;;;;1.83;1.35;;;0.80;99.90;;;;;;2088162;28;20184;-71
2022/02/11 05:30:17;;;;;;;1.27;1.17;;;1.00;99.90;;;;;;2088085;28;20264;-70
2022/02/11 05:31:18;;;;;;;1.70;1.47;;;0.90;99.90;;;;;;2088277;28;20207;-71
2022/02/11 05:32:18;;;;;;;1.70;1.50;;;1.00;99.90;;;;;;2088129;28;20182;-71
2022/02/11 05:33:20;;;;;;;1.83;1.50;;;1.00;99.90;;;;;;2088675;28;20199;-70
2022/02/11 05:34:21;;;;;;;1.40;1.30;;;1.00;99.90;;;;;;2088682;28;20184;-71
2022/02/11 05:35:23;;;;;;;1.37;1.20;;;1.00;99.90;;;;;;2088219;28;20180;-71
2022/02/11 05:36:23;;;;;;;2.05;1.33;;;1.00;99.90;;;;;;2088233;28;20265;-71
2022/02/11 05:37:24;;;;;;;1.43;1.30;;;1.10;99.90;;;;;;2088866;28;20188;-71
2022/02/11 05:38:25;;;;;;;2.00;1.57;;;1.10;99.90;;;;;;2088901;28;20693;-70
2022/02/11 05:39:25;;;;;;;1.53;1.43;;;1.10;99.90;;;;;;2088095;28;20726;-70
2022/02/11 05:40:26;;;;;;;1.37;1.20;;;1.10;99.90;;;;;;2088192;28;20203;-71
2022/02/11 05:41:27;;;;;;;1.70;1.52;;;1.00;99.90;;;;;;2080008;28;20232;-70
2022/02/11 05:42:31;;;;;;;2.00;1.40;;;1.00;99.90;;;;;;2088216;28;20212;-70
2022/02/11 05:43:32;;;;;;;2.63;1.83;;;1.00;99.90;;;;;;2088688;28;20346;-70
2022/02/11 05:44:32;;;;;;;2.03;1.50;;;1.00;99.90;;;;;;2088654;28;20260;-70
2022/02/11 05:45:33;;;;;;;2.27;1.60;;;0.80;99.90;;;;;;2088112;28;20636;-70
2022/02/11 05:46:34;;;;;;;2.90;1.93;;;0.70;99.90;;;;;;2088176;28;20753;-71
2022/02/11 05:47:35;;;;;;;3.57;2.30;;;0.80;99.90;;;;;;2088754;28;20206;-70
2022/02/11 05:48:38;;;;;;;3.77;2.83;;;0.80;99.90;;;;;;2088772;28;20181;-70
2022/02/11 05:49:39;;;;;;;4.90;3.05;;;0.70;99.90;;;;;;2087579;28;20210;-71
2022/02/11 05:50:40;;;;;;;3.83;3.00;;;0.80;99.90;;;;;;2088191;28;20176;-70
2022/02/11 05:51:40;;;;;;;4.23;2.90;;;0.80;99.90;;;;;;2088708;28;20168;-71
2022/02/11 05:52:41;;;;;;;4.97;3.30;;;0.70;99.90;;;;;;2088701;28;20172;-71
2022/02/11 05:53:42;;;;;;;3.67;2.97;;;0.80;99.90;;;;;;2088875;28;20173;-70
2022/02/11 05:54:43;;;;;;;4.97;3.90;;;0.80;99.90;;;;;;2088574;28;20557;-71
2022/02/11 05:55:44;;;;;;;6.10;4.35;;;0.90;99.90;;;;;;2088582;28;20180;-71
2022/02/11 05:56:44;;;;;;;8.00;4.37;;;0.90;99.90;;;;;;2088767;28;20179;-71
2022/02/11 05:57:45;;;;;;;7.80;4.50;;;1.00;99.90;;;;;;2088710;28;20212;-71
2022/02/11 05:58:45;;;;;;;6.53;4.10;;;1.00;99.90;;;;;;2088082;28;20227;-71
2022/02/11 05:59:46;;;;;;;5.90;4.10;;;1.00;99.90;;;;;;2088019;28;20181;-71
2022/02/11 06:00:47;;;;;;;7.77;4.77;;;1.00;99.90;;;;;;2088764;28;20180;-71
2022/02/11 06:01:47;;;;;;;8.03;4.73;;;1.10;99.90;;;;;;2088684;28;20758;-70
2022/02/11 06:02:48;;;;;;;12.73;4.97;;;1.10;99.90;;;;;;2088027;28;20188;-71
2022/02/11 06:03:49;;;;;;;8.00;4.47;;;1.10;99.90;;;;;;2088052;28;20198;-70
2022/02/11 06:04:49;;;;;;;9.53;5.07;;;0.90;99.90;;;;;;2088508;28;20232;-70
2022/02/11 06:05:50;;;;;;;8.23;5.13;;;0.90;99.90;;;;;;2088651;28;20214;-71
2022/02/11 06:06:52;;;;;;;8.57;5.20;;;0.90;99.90;;;;;;2088088;28;20219;-71
2022/02/11 06:07:53;;;;;;;10.05;4.80;;;0.90;99.90;;;;;;2080377;28;20323;-71
2022/02/11 06:08:53;;;;;;;7.80;4.60;;;0.70;99.90;;;;;;2097897;28;20175;-71
2022/02/11 06:09:54;;;;;;;7.80;4.93;;;0.70;99.90;;;;;;2097790;28;20207;-71
2022/02/11 06:10:54;;;;;;;9.13;5.57;;;0.70;99.90;;;;;;2081444;28;20192;-70
2022/02/11 06:11:55;;;;;;;9.57;5.97;;;0.70;99.90;;;;;;2097897;28;20179;-70
2022/02/11 06:12:56;;;;;;;9.03;6.17;;;0.70;99.90;;;;;;2106283;28;20195;-71
2022/02/11 06:13:57;;;;;;;7.50;4.97;;;0.70;99.90;;;;;;2090158;28;20191;-70
2022/02/11 06:14:57;;;;;;;6.27;4.40;;;0.70;99.90;;;;;;2089478;28;20208;-70
2022/02/11 06:15:59;;;;;;;9.80;3.87;;;0.70;99.90;;;;;;2089641;28;20199;-71
2022/02/11 06:17:00;;;;;;;6.57;3.85;;;0.60;99.90;;;;;;2090263;28;20275;-70
2022/02/11 06:18:00;;;;;;;4.70;3.47;;;0.60;99.90;;;;;;2090195;28;20180;-70
2022/02/11 06:19:01;;;;;;;8.70;4.10;;;0.60;99.90;;;;;;2089511;28;20180;-71
2022/02/11 06:20:02;;;;;;;7.23;4.23;;;0.70;99.90;;;;;;2089661;28;20233;-70
2022/02/11 06:21:03;;;;;;;6.07;4.13;;;0.70;99.90;;;;;;2106100;28;20246;-71
2022/02/11 06:22:04;;;;;;;7.00;4.00;;;0.60;99.90;;;;;;2106326;28;20202;-70
2022/02/11 06:23:05;;;;;;;6.90;4.33;;;0.50;99.90;;;;;;2090294;28;20295;-70
2022/02/11 06:24:06;;;;;;;7.05;4.35;;;0.50;99.90;;;;;;2081376;28;20185;-70
2022/02/11 06:25:08;;;;;;;6.18;4.38;;;0.60;99.90;;;;;;2081237;28;20181;-70
2022/02/11 06:26:08;;;;;;;7.90;4.97;;;0.70;99.90;;;;;;2090127;28;20695;-70
2022/02/11 06:27:09;;;;;;;8.20;5.20;;;0.70;99.90;;;;;;2090110;28;20207;-70
2022/02/11 06:28:11;;;;;;;8.00;4.63;;;0.70;99.90;;;;;;2089506;28;20188;-71
2022/02/11 06:29:13;;;;;;;6.50;4.35;;;0.80;99.90;;;;;;2097886;28;20264;-71
2022/02/11 06:30:14;;;;;;;8.60;5.63;;;0.80;99.90;;;;;;2105730;28;20215;-71
2022/02/11 06:31:15;;;;;;;9.50;5.00;;;0.90;99.90;;;;;;2090013;28;20565;-71
2022/02/11 06:32:15;;;;;;;7.63;4.07;;;1.00;99.90;;;;;;2089517;28;20192;-70
2022/02/11 06:33:16;;;;;;;7.33;4.67;;;0.90;99.90;;;;;;2089491;28;20211;-70
2022/02/11 06:34:17;;;;;;;5.47;3.50;;;0.90;99.90;;;;;;2089384;28;20233;-72
2022/02/11 06:35:18;;;;;;;10.05;5.60;;;0.70;99.90;;;;;;2089509;28;20184;-70
2022/02/11 06:36:19;;;;;;;11.53;5.37;;;0.60;99.90;;;;;;2106257;28;20187;-70
2022/02/11 06:37:20;;;;;;;7.15;4.43;;;0.60;99.90;;;;;;2106658;28;20185;-71
2022/02/11 06:38:21;;;;;;;7.20;3.60;;;0.60;99.90;;;;;;2090085;28;20600;-70
2022/02/11 06:39:24;;;;;;;8.27;4.03;;;0.50;99.90;;;;;;2089313;28;20711;-71
2022/02/11 06:40:29;;;;;;;9.27;4.15;;;0.50;99.90;;;;;;2081538;28;20704;-71
2022/02/11 06:41:29;;;;;;;8.02;4.93;;;0.50;99.90;;;;;;2089423;28;20595;-71
2022/02/11 06:42:30;;;;;;;6.77;4.60;;;0.50;99.90;;;;;;2089543;28;20258;-71
2022/02/11 06:43:31;;;;;;;6.23;4.57;;;0.50;99.90;;;;;;2089887;28;20667;-71
2022/02/11 06:44:31;;;;;;;6.37;4.57;;;0.50;99.90;;;;;;2089898;28;20185;-71
2022/02/11 06:45:33;;;;;;;7.23;4.10;;;0.60;99.90;;;;;;2089998;28;20430;-71
2022/02/11 06:46:34;;;;;;;8.13;5.13;;;0.60;99.90;;;;;;2089952;28;20873;-70
2022/02/11 06:47:35;;;;;;;7.30;4.33;;;0.70;99.90;;;;;;2089258;28;20197;-72
2022/02/11 06:48:36;;;;;;;6.00;4.38;;;0.70;99.90;;;;;;2087848;28;20195;-71
2022/02/11 06:49:36;;;;;;;7.40;4.07;;;0.60;99.90;;;;;;2089622;28;20187;-71
2022/02/11 06:50:37;;;;;;;6.40;3.70;;;0.60;99.90;;;;;;2091118;28;20551;-71
2022/02/11 06:51:38;;;;;;;7.50;3.80;;;0.70;99.90;;;;;;2094024;28;20633;-71
2022/02/11 06:52:38;;;;;;;6.03;3.60;;;0.80;99.90;;;;;;2092728;28;20171;-72
2022/02/11 06:53:39;;;;;;;7.60;3.50;;;0.70;99.90;;;;;;2098201;28;20186;-71
2022/02/11 06:54:41;;;;;;;9.27;4.00;;;0.70;99.90;;;;;;2097913;28;20574;-71
2022/02/11 06:55:42;;;;;;;5.60;3.80;;;0.70;99.90;;;;;;2098183;28;20197;-70
2022/02/11 06:56:43;;;;;;;5.68;3.80;;;0.80;99.90;;;;;;2097632;28;20211;-71
2022/02/11 06:57:43;;;;;;;8.27;3.40;;;0.80;99.90;;;;;;2097619;28;20183;-71
2022/02/11 06:58:45;;;;;;;5.43;2.57;;;0.60;99.90;;;;;;2098195;28;20175;-71
2022/02/11 06:59:46;;;;;;;4.57;2.78;;;0.50;99.90;;;;;;2097879;28;20731;-70
2022/02/11 07:00:50;;;;;;;3.97;2.77;;;0.50;99.90;;;;;;2097991;28;20232;-72
2022/02/11 07:01:50;;;;;;;5.95;2.97;;;0.40;99.90;;;;;;2097365;28;20269;-71
2022/02/11 07:02:52;;;;;;;6.40;3.20;;;0.40;99.90;;;;;;2097578;28;20176;-70
2022/02/11 07:03:52;;;;;;;6.15;3.13;;;0.40;99.90;;;;;;2097617;28;20172;-70
2022/02/11 07:04:53;;;;;;;5.23;2.87;;;0.50;99.90;;;;;;2097109;28;20198;-71
2022/02/11 07:05:56;;;;;;;4.72;2.70;;;0.50;99.90;;;;;;2097551;28;20556;-70
2022/02/11 07:06:57;;;;;;;4.28;3.03;;;0.60;99.90;;;;;;2097456;28;20187;-70
2022/02/11 07:07:58;;;;;;;6.77;3.17;;;0.60;99.90;;;;;;2097395;28;20673;-71
2022/02/11 07:08:58;;;;;;;4.00;2.37;;;0.50;99.90;;;;;;2097148;28;20188;-70
2022/02/11 07:09:59;;;;;;;6.83;2.97;;;0.40;99.90;;;;;;2097453;28;20214;-71
2022/02/11 07:10:59;;;;;;;6.37;2.50;;;0.30;99.90;;;;;;2097267;28;20187;-70
2022/02/11 07:12:00;;;;;;;5.13;2.50;;;0.30;99.90;;;;;;2097442;28;20176;-70
2022/02/11 07:13:01;;;;;;;6.33;2.87;;;0.20;99.90;;;;;;2097229;28;20199;-71
2022/02/11 07:14:03;;;;;;;5.43;2.97;;;0.10;99.90;;;;;;2089258;28;20200;-71
2022/02/11 07:15:04;;;;;;;4.95;2.80;;;0.20;99.90;;;;;;2096883;28;20236;-70
2022/02/11 07:16:05;;;;;;;3.45;2.70;;;0.20;99.90;;;;;;2097384;28;20179;-71
2022/02/11 07:17:06;;;;;;;7.50;2.80;;;0.30;99.90;;;;;;2097333;28;20180;-70
2022/02/11 07:18:06;;;;;;;6.33;3.43;;;0.30;99.90;;;;;;2097434;28;20559;-70
2022/02/11 07:19:07;;;;;;;6.53;2.97;;;0.30;99.90;;;;;;2096577;28;20642;-72
2022/02/11 07:20:11;;;;;;;4.80;3.07;;;0.20;99.90;;;;;;2097956;28;20274;-71
2022/02/11 07:21:12;;;;;;;7.60;3.00;;;0.30;99.90;;;;;;2097276;28;20176;-70
2022/02/11 07:22:12;;;;;;;5.90;3.90;;;0.20;99.90;;;;;;2097460;28;20183;-70
2022/02/11 07:23:13;;;;;;;4.80;2.70;;;0.20;99.90;;;;;;2097978;28;20701;-71
2022/02/11 07:24:14;;;;;;;5.40;2.97;;;0.10;99.90;;;;;;2097496;28;20697;-70
2022/02/11 07:25:15;;;;;;;3.97;2.63;;;0.00;99.90;;;;;;2096791;28;20183;-70
2022/02/11 07:26:15;;;;;;;7.93;3.57;;;0.00;99.90;;;;;;2097429;28;20183;-70
2022/02/11 07:27:16;;;;;;;10.03;3.17;;;0.00;99.90;;;;;;2097848;28;20267;-70
2022/02/11 07:28:20;;;;;;;5.97;3.00;;;0.00;99.90;;;;;;2097930;28;20191;-70
2022/02/11 07:29:21;;;;;;;5.88;2.60;;;-0.10;99.90;;;;;;2096977;28;20864;-70
2022/02/11 07:30:21;;;;;;;7.80;2.70;;;-0.20;99.90;;;;;;2097205;28;20268;-70
2022/02/11 07:31:22;;;;;;;4.80;2.43;;;-0.20;99.90;;;;;;2088929;28;20685;-71
2022/02/11 07:32:25;;;;;;;5.20;3.00;;;-0.20;99.90;;;;;;2097337;28;20559;-70
2022/02/11 07:33:25;;;;;;;6.65;3.22;;;-0.10;99.90;;;;;;2097821;28;20202;-70
2022/02/11 07:34:26;;;;;;;9.30;4.00;;;0.00;99.90;;;;;;2097591;28;20218;-70
2022/02/11 07:35:27;;;;;;;7.83;3.63;;;-0.10;99.90;;;;;;2097893;28;20187;-70
2022/02/11 07:36:28;;;;;;;6.25;3.00;;;-0.10;99.90;;;;;;2097850;28;20181;-71
2022/02/11 07:37:30;;;;;;;5.60;3.30;;;-0.10;99.90;;;;;;2097829;28;20179;-70
2022/02/11 07:38:31;;;;;;;5.30;2.28;;;-0.10;99.90;;;;;;2097910;28;20262;-70
2022/02/11 07:39:32;;;;;;;4.07;2.40;;;-0.20;99.90;;;;;;2097525;28;20188;-71
2022/02/11 07:40:32;;;;;;;3.87;2.70;;;-0.10;99.90;;;;;;2097874;28;20228;-70
2022/02/11 07:41:33;;;;;;;3.97;3.00;;;-0.10;99.90;;;;;;2097026;28;20187;-70
2022/02/11 07:42:34;;;;;;;4.93;3.03;;;0.00;99.90;;;;;;2097283;28;20250;-70
2022/02/11 07:43:35;;;;;;;7.00;3.10;;;0.00;99.90;;;;;;2097051;28;20195;-70
2022/02/11 07:44:35;;;;;;;6.47;3.20;;;0.00;99.90;;;;;;2097659;28;20176;-70
2022/02/11 07:45:37;;;;;;;6.90;3.20;;;-0.10;99.90;;;;;;2097803;28;20175;-71
2022/02/11 07:46:38;;;;;;;5.28;3.35;;;0.00;99.90;;;;;;2097971;28;20727;-71
2022/02/11 07:47:38;;;;;;;4.03;2.93;;;0.00;99.90;;;;;;2097847;28;20186;-71
2022/02/11 07:48:39;;;;;;;3.97;2.87;;;0.00;99.90;;;;;;2097377;28;20552;-70
2022/02/11 07:49:40;;;;;;;5.47;3.03;;;-0.10;99.90;;;;;;2097106;28;20179;-71
2022/02/11 07:50:42;;;;;;;5.10;2.97;;;0.00;99.90;;;;;;2097212;28;20421;-71
2022/02/11 07:51:43;;;;;;;4.57;2.65;;;0.00;99.90;;;;;;2097491;28;20182;-69
2022/02/11 07:52:44;;;;;;;10.43;3.53;;;0.10;99.90;;;;;;2097239;28;20190;-70
2022/02/11 07:53:45;;;;;;;9.10;4.10;;;0.10;99.90;;;;;;2097479;28;20525;-70
2022/02/11 07:54:46;;;;;;;11.20;4.28;;;0.10;99.90;;;;;;2096875;28;20182;-70
2022/02/11 07:55:47;;;;;;;11.77;4.07;;;0.10;99.90;;;;;;2097411;28;20694;-69
2022/02/11 07:56:47;;;;;;;5.73;3.27;;;0.10;99.90;;;;;;2097347;28;20545;-69
2022/02/11 07:57:48;;;;;;;8.63;4.27;;;0.20;99.90;;;;;;2097374;28;20598;-70
2022/02/11 07:58:51;;;;;;;6.00;3.30;;;0.30;99.90;;;;;;2093445;28;20183;-70
2022/02/11 07:59:52;;;;;;;5.38;3.40;;;0.50;99.90;;;;;;2089029;28;20553;-70
2022/02/11 08:00:53;;;;;;;10.90;4.45;;;0.50;99.90;;;;;;2089500;28;20231;-70
2022/02/11 08:01:55;;;;;;;6.57;3.70;;;0.50;99.90;;;;;;2088951;28;20560;-71
2022/02/11 08:02:55;;;;;;;5.90;3.30;;;0.60;99.90;;;;;;2088787;28;20188;-69
2022/02/11 08:03:57;;;;;;;6.27;3.57;;;0.60;99.90;;;;;;2089645;28;20172;-69
2022/02/11 08:04:57;;;;;;;5.40;3.28;;;0.70;99.90;;;;;;2089037;28;20189;-69
2022/02/11 08:05:58;;;;;;;5.80;3.90;;;0.60;99.90;;;;;;2097198;28;20554;-69
2022/02/11 08:06:59;;;;;;;8.00;2.83;;;0.60;99.90;;;;;;2097213;28;20256;-70
2022/02/11 08:08:00;;;;;;;5.13;2.87;;;0.50;99.90;;;;;;2097007;28;20300;-70
2022/02/11 08:09:00;;;;;;;3.77;2.50;;;0.50;99.90;;;;;;2096817;28;20245;-71
2022/02/11 08:10:02;;;;;;;7.67;3.30;;;0.60;99.90;;;;;;2097142;28;20245;-70
2022/02/11 08:11:03;;;;;;;5.88;2.72;;;0.70;99.90;;;;;;2096895;28;20261;-70
2022/02/11 08:12:04;;;;;;;7.10;3.30;;;0.80;99.90;;;;;;2088830;28;20717;-70
2022/02/11 08:13:04;;;;;;;5.63;3.17;;;0.90;99.90;;;;;;2096853;28;20694;-71
2022/02/11 08:14:05;;;;;;;7.27;2.70;;;0.90;99.90;;;;;;2096904;28;20208;-70
2022/02/11 08:15:07;;;;;;;5.63;2.63;;;0.90;99.90;;;;;;2088368;28;20187;-70
2022/02/11 08:16:08;;;;;;;4.20;2.30;;;0.90;99.90;;;;;;2088868;28;20246;-70
2022/02/11 08:17:08;;;;;;;4.03;2.77;;;0.80;99.80;;;;;;2088772;28;20403;-70
2022/02/11 08:18:09;;;;;;;6.17;2.50;;;0.90;99.90;;;;;;2097112;28;20202;-70
2022/02/11 08:19:09;;;;;;;5.00;2.30;;;0.80;99.90;;;;;;2089084;28;20188;-70
2022/02/11 08:20:11;;;;;;;3.23;2.30;;;0.80;99.90;;;;;;2096999;28;20180;-70
2022/02/11 08:21:11;;;;;;;4.40;2.50;;;0.80;99.90;;;;;;2096838;28;20176;-70
2022/02/11 08:22:12;;;;;;;5.87;2.37;;;0.80;99.70;;;;;;2097067;28;20191;-69
2022/02/11 08:23:13;;;;;;;6.20;2.20;;;0.80;99.90;;;;;;2097015;28;20200;-69
2022/02/11 08:24:14;;;;;;;6.70;2.80;;;0.70;99.90;;;;;;2097088;28;20241;-69
2022/02/11 08:25:15;;;;;;;4.10;2.40;;;0.70;99.90;;;;;;2104817;28;20224;-69
2022/02/11 08:26:16;;;;;;;3.75;3.00;;;0.70;99.90;;;;;;2089366;28;20181;-69
2022/02/11 08:27:17;;;;;;;4.13;2.03;;;0.80;99.90;;;;;;2088507;28;20210;-69
2022/02/11 08:28:17;;;;;;;10.17;2.33;;;0.90;99.90;;;;;;2088704;28;20236;-70
2022/02/11 08:29:22;;;;;;;4.63;2.43;;;1.00;99.90;;;;;;2096778;28;20542;-70
2022/02/11 08:30:23;;;;;;;3.85;2.53;;;1.20;99.90;;;;;;2095642;28;20701;-69
2022/02/11 08:31:24;;;;;;;5.43;2.80;;;1.20;99.90;;;;;;2088426;28;20184;-70
2022/02/11 08:32:25;;;;;;;7.95;2.70;;;1.40;99.90;;;;;;2096869;28;20180;-70
2022/02/11 08:33:26;;;;;;;12.20;4.93;;;1.60;99.90;;;;;;2096788;28;20191;-70
2022/02/11 08:34:26;;;;;;;9.10;4.30;;;1.50;97.40;;;;;;2088264;28;20191;-69
2022/02/11 08:35:27;;;;;;;7.17;3.50;;;1.50;98.20;;;;;;2096887;28;20512;-70
2022/02/11 08:36:28;;;;;;;11.23;5.60;;;1.50;98.50;;;;;;2096847;28;20182;-70
2022/02/11 08:37:29;;;;;;;13.07;4.93;;;1.60;98.80;;;;;;2096713;28;20179;-69
2022/02/11 08:38:30;;;;;;;8.70;3.40;;;1.70;99.30;;;;;;2092633;28;20188;-70
2022/02/11 08:39:34;;;;;;;4.50;2.57;;;1.50;99.30;;;;;;2089045;28;20187;-70
2022/02/11 08:40:35;;;;;;;5.72;2.85;;;1.40;99.10;;;;;;2088365;28;20659;-68
2022/02/11 08:41:36;;;;;;;3.83;2.50;;;1.40;99.20;;;;;;2088819;28;20318;-70
2022/02/11 08:42:37;;;;;;;5.07;2.60;;;1.30;98.60;;;;;;2089231;28;20184;-69
2022/02/11 08:43:38;;;;;;;5.47;2.50;;;1.20;99.90;;;;;;2089360;28;20187;-70
2022/02/11 08:44:38;;;;;;;5.33;2.67;;;1.20;99.90;;;;;;2088659;28;20218;-70
2022/02/11 08:45:40;;;;;;;4.50;2.70;;;1.10;99.90;;;;;;2089204;28;20184;-70
2022/02/11 08:46:41;;;;;;;5.18;2.95;;;1.00;99.90;;;;;;2088555;28;20252;-69
2022/02/11 08:47:42;;;;;;;4.47;2.73;;;1.00;99.90;;;;;;2080252;28;20177;-70
2022/02/11 08:48:42;;;;;;;4.17;2.60;;;1.00;99.90;;;;;;2088533;28;20179;-70
2022/02/11 08:49:43;;;;;;;5.73;2.40;;;1.20;99.90;;;;;;2088246;28;20183;-70
2022/02/11 08:50:44;;;;;;;4.30;2.50;;;1.30;99.90;;;;;;2080170;28;20185;-71
2022/02/11 08:51:45;;;;;;;4.93;3.35;;;1.30;99.90;;;;;;2088599;28;20268;-70
2022/02/11 08:52:46;;;;;;;6.63;2.73;;;1.40;99.90;;;;;;2089126;28;20183;-70
2022/02/11 08:53:49;;;;;;;8.20;2.73;;;1.30;99.90;;;;;;2089182;28;20169;-70
2022/02/11 08:54:49;;;;;;;8.65;2.50;;;1.30;99.90;;;;;;2088648;28;20590;-70
2022/02/11 08:55:50;;;;;;;7.37;2.83;;;1.30;99.90;;;;;;2089184;28;20188;-71
2022/02/11 08:56:51;;;;;;;5.03;2.45;;;1.40;99.90;;;;;;2088378;28;20176;-70
2022/02/11 08:57:53;;;;;;;4.77;2.40;;;1.40;99.90;;;;;;2088586;28;20172;-70
2022/02/11 08:58:53;;;;;;;5.90;2.60;;;1.50;99.90;;;;;;2088819;28;20179;-70
2022/02/11 08:59:54;;;;;;;5.40;2.30;;;1.50;99.90;;;;;;2088535;28;20711;-72
2022/02/11 09:00:55;;;;;;;4.33;2.50;;;1.50;99.90;;;;;;2088331;28;20189;-71
2022/02/11 09:01:55;;;;;;;3.33;2.40;;;1.50;99.90;;;;;;2089192;28;20181;-70
2022/02/11 09:02:57;;;;;;;4.83;2.10;;;1.60;99.90;;;;;;2088974;28;20550;-71